Pine Lake, New York
Current Conditions -  °F | °C
As of 7:15 AM on Wednesday 28 Jan 2015 (Local Time) from KNY0 Reporting Station
Clear Clear  
Wind Chill: -10°   Ceiling: Unl
Heat Index:   Visibility: 10mi
Dew Point: -7°   Wind: 10mph
Humidity: 60%   Direction: 270°W
Pressure: 30.01"   Gusts: NA
Location:  43.2783°N, 74.5481°W
Report Text: KNY0 281215Z AUTO 27009KT 10SM CLR M15/M21 A3001 RMK AO2 T11521214
Loading
Personal Weather Stations






























Interactive Weather Map New forecast layout! Learn more

10-Day Weather Forecast

Advertisements
Track Severe Weather on mobile